sensor_id;sensor_type;location;lat;lon;timestamp;temperature;humidity
71173;DHT22;58875;51.996;4.504;2023-09-19T00:00:57;16.62;64.81
71173;DHT22;58875;51.996;4.504;2023-09-19T00:03:23;16.57;64.50
71173;DHT22;58875;51.996;4.504;2023-09-19T00:05:50;16.62;63.84
71173;DHT22;58875;51.996;4.504;2023-09-19T00:08:16;16.69;63.21
71173;DHT22;58875;51.996;4.504;2023-09-19T00:10:42;16.73;63.11
71173;DHT22;58875;51.996;4.504;2023-09-19T00:13:09;16.70;63.05
71173;DHT22;58875;51.996;4.504;2023-09-19T00:15:40;16.79;63.10
71173;DHT22;58875;51.996;4.504;2023-09-19T00:18:07;16.73;62.44
71173;DHT22;58875;51.996;4.504;2023-09-19T00:20:37;16.73;63.25
71173;DHT22;58875;51.996;4.504;2023-09-19T00:23:06;16.70;62.85
71173;DHT22;58875;51.996;4.504;2023-09-19T00:25:34;16.71;63.46
71173;DHT22;58875;51.996;4.504;2023-09-19T00:28:04;16.70;63.58
71173;DHT22;58875;51.996;4.504;2023-09-19T00:30:30;16.67;64.71
71173;DHT22;58875;51.996;4.504;2023-09-19T00:32:55;16.64;63.54
71173;DHT22;58875;51.996;4.504;2023-09-19T00:35:21;16.67;63.79
71173;DHT22;58875;51.996;4.504;2023-09-19T00:37:50;16.70;64.27
71173;DHT22;58875;51.996;4.504;2023-09-19T00:40:16;16.70;65.02
71173;DHT22;58875;51.996;4.504;2023-09-19T00:42:43;16.60;65.59
71173;DHT22;58875;51.996;4.504;2023-09-19T00:45:10;16.57;65.68
71173;DHT22;58875;51.996;4.504;2023-09-19T00:47:48;16.45;66.06
71173;DHT22;58875;51.996;4.504;2023-09-19T00:50:20;16.46;66.32
71173;DHT22;58875;51.996;4.504;2023-09-19T00:52:48;16.42;66.53
71173;DHT22;58875;51.996;4.504;2023-09-19T00:55:16;16.38;67.10
71173;DHT22;58875;51.996;4.504;2023-09-19T00:57:44;16.38;67.39
71173;DHT22;58875;51.996;4.504;2023-09-19T01:00:11;16.28;67.38
71173;DHT22;58875;51.996;4.504;2023-09-19T01:02:41;16.25;67.39
71173;DHT22;58875;51.996;4.504;2023-09-19T01:05:11;16.25;67.28
71173;DHT22;58875;51.996;4.504;2023-09-19T01:07:37;16.28;67.46
71173;DHT22;58875;51.996;4.504;2023-09-19T01:10:08;16.25;67.39
71173;DHT22;58875;51.996;4.504;2023-09-19T01:26:18;16.34;67.99
71173;DHT22;58875;51.996;4.504;2023-09-19T01:31:34;16.34;69.14
71173;DHT22;58875;51.996;4.504;2023-09-19T01:34:03;16.34;69.96
71173;DHT22;58875;51.996;4.504;2023-09-19T01:36:35;16.36;70.26
71173;DHT22;58875;51.996;4.504;2023-09-19T01:39:12;16.29;70.38
71173;DHT22;58875;51.996;4.504;2023-09-19T01:41:54;16.26;70.48
71173;DHT22;58875;51.996;4.504;2023-09-19T01:44:29;16.22;70.90
71173;DHT22;58875;51.996;4.504;2023-09-19T01:46:59;16.15;70.36
71173;DHT22;58875;51.996;4.504;2023-09-19T01:49:44;16.11;69.86
71173;DHT22;58875;51.996;4.504;2023-09-19T01:52:14;16.13;69.76
71173;DHT22;58875;51.996;4.504;2023-09-19T01:54:52;16.15;68.58
71173;DHT22;58875;51.996;4.504;2023-09-19T01:57:29;16.18;68.20
71173;DHT22;58875;51.996;4.504;2023-09-19T02:00:07;16.16;68.24
71173;DHT22;58875;51.996;4.504;2023-09-19T02:02:38;16.15;67.95
71173;DHT22;58875;51.996;4.504;2023-09-19T02:05:04;16.12;68.43
71173;DHT22;58875;51.996;4.504;2023-09-19T02:07:30;16.11;68.02
71173;DHT22;58875;51.996;4.504;2023-09-19T02:09:59;16.09;67.85
71173;DHT22;58875;51.996;4.504;2023-09-19T02:12:30;16.12;68.01
71173;DHT22;58875;51.996;4.504;2023-09-19T02:14:56;16.12;67.74
71173;DHT22;58875;51.996;4.504;2023-09-19T02:17:23;16.12;67.91
71173;DHT22;58875;51.996;4.504;2023-09-19T02:19:54;16.12;68.58
71173;DHT22;58875;51.996;4.504;2023-09-19T02:22:21;16.04;68.62
71173;DHT22;58875;51.996;4.504;2023-09-19T02:24:48;16.04;68.83
71173;DHT22;58875;51.996;4.504;2023-09-19T02:27:13;16.04;69.30
71173;DHT22;58875;51.996;4.504;2023-09-19T02:29:41;15.99;68.96
71173;DHT22;58875;51.996;4.504;2023-09-19T02:32:07;16.02;69.04
71173;DHT22;58875;51.996;4.504;2023-09-19T02:34:35;16.04;69.28
71173;DHT22;58875;51.996;4.504;2023-09-19T02:37:07;16.13;69.21
71173;DHT22;58875;51.996;4.504;2023-09-19T02:39:34;16.05;69.25
71173;DHT22;58875;51.996;4.504;2023-09-19T02:42:00;16.05;69.01
71173;DHT22;58875;51.996;4.504;2023-09-19T02:44:25;16.16;68.84
71173;DHT22;58875;51.996;4.504;2023-09-19T02:46:52;16.16;68.53
71173;DHT22;58875;51.996;4.504;2023-09-19T02:49:18;16.19;68.58
71173;DHT22;58875;51.996;4.504;2023-09-19T02:51:44;16.22;68.88
71173;DHT22;58875;51.996;4.504;2023-09-19T02:54:11;16.26;68.77
71173;DHT22;58875;51.996;4.504;2023-09-19T02:56:37;16.23;68.31
71173;DHT22;58875;51.996;4.504;2023-09-19T02:59:03;16.28;68.64
71173;DHT22;58875;51.996;4.504;2023-09-19T03:01:29;16.22;68.52
71173;DHT22;58875;51.996;4.504;2023-09-19T03:03:55;16.28;68.37
71173;DHT22;58875;51.996;4.504;2023-09-19T03:06:21;16.28;68.50
71173;DHT22;58875;51.996;4.504;2023-09-19T03:08:47;16.33;68.93
71173;DHT22;58875;51.996;4.504;2023-09-19T03:11:14;16.28;68.85
71173;DHT22;58875;51.996;4.504;2023-09-19T03:13:41;16.33;69.07
71173;DHT22;58875;51.996;4.504;2023-09-19T03:16:08;16.42;68.21
71173;DHT22;58875;51.996;4.504;2023-09-19T03:18:35;16.46;68.04
71173;DHT22;58875;51.996;4.504;2023-09-19T03:21:00;16.43;67.81
71173;DHT22;58875;51.996;4.504;2023-09-19T03:23:27;16.46;67.38
71173;DHT22;58875;51.996;4.504;2023-09-19T03:25:55;16.50;67.53
71173;DHT22;58875;51.996;4.504;2023-09-19T03:28:24;16.49;67.57
71173;DHT22;58875;51.996;4.504;2023-09-19T03:33:25;16.46;68.02
71173;DHT22;58875;51.996;4.504;2023-09-19T03:35:54;16.48;68.29
71173;DHT22;58875;51.996;4.504;2023-09-19T03:38:20;16.55;69.03
71173;DHT22;58875;51.996;4.504;2023-09-19T03:40:47;16.56;69.97
71173;DHT22;58875;51.996;4.504;2023-09-19T03:43:14;16.50;70.89
71173;DHT22;58875;51.996;4.504;2023-09-19T03:45:39;16.34;71.45
71173;DHT22;58875;51.996;4.504;2023-09-19T03:48:11;16.29;72.07
71173;DHT22;58875;51.996;4.504;2023-09-19T03:50:36;16.16;72.65
71173;DHT22;58875;51.996;4.504;2023-09-19T03:53:02;16.12;72.77
71173;DHT22;58875;51.996;4.504;2023-09-19T03:55:28;16.11;73.20
71173;DHT22;58875;51.996;4.504;2023-09-19T03:57:56;16.04;72.98
71173;DHT22;58875;51.996;4.504;2023-09-19T04:00:22;16.12;72.88
71173;DHT22;58875;51.996;4.504;2023-09-19T04:02:51;16.15;72.73
71173;DHT22;58875;51.996;4.504;2023-09-19T04:05:17;16.15;72.57
71173;DHT22;58875;51.996;4.504;2023-09-19T04:07:43;16.13;72.79
71173;DHT22;58875;51.996;4.504;2023-09-19T04:10:09;16.02;73.12
71173;DHT22;58875;51.996;4.504;2023-09-19T04:12:37;15.95;73.43
71173;DHT22;58875;51.996;4.504;2023-09-19T04:15:04;15.92;73.53
71173;DHT22;58875;51.996;4.504;2023-09-19T04:17:30;15.88;73.49
71173;DHT22;58875;51.996;4.504;2023-09-19T04:19:58;15.87;73.86
71173;DHT22;58875;51.996;4.504;2023-09-19T04:22:24;15.90;74.06
71173;DHT22;58875;51.996;4.504;2023-09-19T04:24:49;15.95;74.00
71173;DHT22;58875;51.996;4.504;2023-09-19T04:27:14;15.95;74.01
71173;DHT22;58875;51.996;4.504;2023-09-19T04:29:40;15.92;73.93
71173;DHT22;58875;51.996;4.504;2023-09-19T04:32:07;15.92;73.94
71173;DHT22;58875;51.996;4.504;2023-09-19T04:34:33;15.98;73.88
71173;DHT22;58875;51.996;4.504;2023-09-19T04:37:03;16.01;73.80
71173;DHT22;58875;51.996;4.504;2023-09-19T04:39:29;15.99;73.84
71173;DHT22;58875;51.996;4.504;2023-09-19T04:41:55;16.04;73.58
71173;DHT22;58875;51.996;4.504;2023-09-19T04:44:20;16.06;73.47
71173;DHT22;58875;51.996;4.504;2023-09-19T04:46:46;16.06;73.36
71173;DHT22;58875;51.996;4.504;2023-09-19T04:49:12;16.08;73.17
71173;DHT22;58875;51.996;4.504;2023-09-19T04:51:38;16.12;73.17
71173;DHT22;58875;51.996;4.504;2023-09-19T04:54:04;16.23;73.29
71173;DHT22;58875;51.996;4.504;2023-09-19T04:56:29;16.19;73.30
71173;DHT22;58875;51.996;4.504;2023-09-19T04:58:55;16.22;73.39
71173;DHT22;58875;51.996;4.504;2023-09-19T05:01:22;16.21;73.72
71173;DHT22;58875;51.996;4.504;2023-09-19T05:03:48;16.13;73.54
71173;DHT22;58875;51.996;4.504;2023-09-19T05:06:18;16.12;74.00
71173;DHT22;58875;51.996;4.504;2023-09-19T05:08:43;16.06;73.80
71173;DHT22;58875;51.996;4.504;2023-09-19T05:11:09;16.04;73.83
71173;DHT22;58875;51.996;4.504;2023-09-19T05:13:34;16.05;73.75
71173;DHT22;58875;51.996;4.504;2023-09-19T05:16:00;16.02;73.80
71173;DHT22;58875;51.996;4.504;2023-09-19T05:18:29;16.02;73.89
71173;DHT22;58875;51.996;4.504;2023-09-19T05:20:54;16.06;73.77
71173;DHT22;58875;51.996;4.504;2023-09-19T05:23:20;16.04;74.10
71173;DHT22;58875;51.996;4.504;2023-09-19T05:25:46;16.04;73.88
71173;DHT22;58875;51.996;4.504;2023-09-19T05:28:12;16.01;74.12
71173;DHT22;58875;51.996;4.504;2023-09-19T05:30:41;15.97;73.85
71173;DHT22;58875;51.996;4.504;2023-09-19T05:33:08;15.95;73.94
71173;DHT22;58875;51.996;4.504;2023-09-19T05:35:35;15.94;74.05
71173;DHT22;58875;51.996;4.504;2023-09-19T05:38:05;15.97;74.19
71173;DHT22;58875;51.996;4.504;2023-09-19T05:40:34;15.92;74.13
71173;DHT22;58875;51.996;4.504;2023-09-19T05:43:01;15.97;74.21
71173;DHT22;58875;51.996;4.504;2023-09-19T05:45:27;16.01;74.50
71173;DHT22;58875;51.996;4.504;2023-09-19T05:47:53;15.88;74.70
71173;DHT22;58875;51.996;4.504;2023-09-19T05:50:29;15.91;75.12
71173;DHT22;58875;51.996;4.504;2023-09-19T05:52:55;15.87;75.27
71173;DHT22;58875;51.996;4.504;2023-09-19T05:55:23;15.92;75.35
71173;DHT22;58875;51.996;4.504;2023-09-19T05:57:52;15.99;75.32
71173;DHT22;58875;51.996;4.504;2023-09-19T06:00:19;15.99;74.89
71173;DHT22;58875;51.996;4.504;2023-09-19T06:02:56;16.04;74.99
71173;DHT22;58875;51.996;4.504;2023-09-19T06:05:23;15.98;75.41
71173;DHT22;58875;51.996;4.504;2023-09-19T06:07:49;16.08;75.26
71173;DHT22;58875;51.996;4.504;2023-09-19T06:10:15;15.98;75.52
71173;DHT22;58875;51.996;4.504;2023-09-19T06:12:43;16.01;75.86
71173;DHT22;58875;51.996;4.504;2023-09-19T06:15:13;16.06;75.82
71173;DHT22;58875;51.996;4.504;2023-09-19T06:17:52;16.12;75.71
71173;DHT22;58875;51.996;4.504;2023-09-19T06:20:21;16.11;75.81
71173;DHT22;58875;51.996;4.504;2023-09-19T06:22:49;16.09;75.78
71173;DHT22;58875;51.996;4.504;2023-09-19T06:25:16;16.06;76.02
71173;DHT22;58875;51.996;4.504;2023-09-19T06:27:49;16.01;75.81
71173;DHT22;58875;51.996;4.504;2023-09-19T06:30:17;15.98;76.35
71173;DHT22;58875;51.996;4.504;2023-09-19T06:32:43;16.02;76.16
71173;DHT22;58875;51.996;4.504;2023-09-19T06:35:16;16.12;76.24
71173;DHT22;58875;51.996;4.504;2023-09-19T06:37:43;16.12;76.24
71173;DHT22;58875;51.996;4.504;2023-09-19T06:40:13;16.19;76.20
71173;DHT22;58875;51.996;4.504;2023-09-19T06:42:43;16.18;75.97
71173;DHT22;58875;51.996;4.504;2023-09-19T06:45:15;16.21;76.01
71173;DHT22;58875;51.996;4.504;2023-09-19T06:47:48;16.23;75.77
71173;DHT22;58875;51.996;4.504;2023-09-19T06:50:21;16.18;75.94
71173;DHT22;58875;51.996;4.504;2023-09-19T06:52:49;16.11;76.21
71173;DHT22;58875;51.996;4.504;2023-09-19T06:55:19;16.09;76.12
71173;DHT22;58875;51.996;4.504;2023-09-19T06:57:46;16.09;76.14
71173;DHT22;58875;51.996;4.504;2023-09-19T07:00:13;16.19;75.72
71173;DHT22;58875;51.996;4.504;2023-09-19T07:05:33;16.25;75.30
71173;DHT22;58875;51.996;4.504;2023-09-19T07:07:59;16.25;75.63
71173;DHT22;58875;51.996;4.504;2023-09-19T07:10:26;16.29;74.88
71173;DHT22;58875;51.996;4.504;2023-09-19T07:13:05;16.34;75.16
71173;DHT22;58875;51.996;4.504;2023-09-19T07:15:38;16.48;75.40
71173;DHT22;58875;51.996;4.504;2023-09-19T07:18:06;16.59;75.04
71173;DHT22;58875;51.996;4.504;2023-09-19T07:20:32;16.62;74.37
71173;DHT22;58875;51.996;4.504;2023-09-19T07:22:58;16.57;74.75
71173;DHT22;58875;51.996;4.504;2023-09-19T07:25:27;16.64;74.73
71173;DHT22;58875;51.996;4.504;2023-09-19T07:27:57;16.67;74.76
71173;DHT22;58875;51.996;4.504;2023-09-19T07:30:27;16.76;75.07
71173;DHT22;58875;51.996;4.504;2023-09-19T07:32:53;16.79;74.47
71173;DHT22;58875;51.996;4.504;2023-09-19T07:35:19;16.80;74.19
71173;DHT22;58875;51.996;4.504;2023-09-19T07:37:49;16.77;74.71
71173;DHT22;58875;51.996;4.504;2023-09-19T07:40:15;16.85;74.38
71173;DHT22;58875;51.996;4.504;2023-09-19T07:42:41;16.79;74.69
71173;DHT22;58875;51.996;4.504;2023-09-19T07:45:07;16.77;74.61
71173;DHT22;58875;51.996;4.504;2023-09-19T07:47:34;16.79;73.98
71173;DHT22;58875;51.996;4.504;2023-09-19T07:50:01;16.74;74.20
71173;DHT22;58875;51.996;4.504;2023-09-19T07:52:29;16.90;74.42
71173;DHT22;58875;51.996;4.504;2023-09-19T07:54:55;17.04;73.67
71173;DHT22;58875;51.996;4.504;2023-09-19T07:57:22;17.06;73.53
71173;DHT22;58875;51.996;4.504;2023-09-19T07:59:48;17.15;73.13
71173;DHT22;58875;51.996;4.504;2023-09-19T08:02:13;17.22;72.91
71173;DHT22;58875;51.996;4.504;2023-09-19T08:04:45;17.36;72.81
71173;DHT22;58875;51.996;4.504;2023-09-19T08:07:14;17.36;71.79
71173;DHT22;58875;51.996;4.504;2023-09-19T08:09:40;17.39;71.96
71173;DHT22;58875;51.996;4.504;2023-09-19T08:12:07;17.41;72.20
71173;DHT22;58875;51.996;4.504;2023-09-19T08:14:36;17.51;72.49
71173;DHT22;58875;51.996;4.504;2023-09-19T08:17:03;17.62;72.20
71173;DHT22;58875;51.996;4.504;2023-09-19T08:19:30;17.73;72.09
71173;DHT22;58875;51.996;4.504;2023-09-19T08:22:00;17.92;71.45
71173;DHT22;58875;51.996;4.504;2023-09-19T08:24:29;17.90;70.53
71173;DHT22;58875;51.996;4.504;2023-09-19T08:26:56;17.87;70.29
71173;DHT22;58875;51.996;4.504;2023-09-19T08:29:23;17.89;70.59
71173;DHT22;58875;51.996;4.504;2023-09-19T08:31:56;17.94;71.42
71173;DHT22;58875;51.996;4.504;2023-09-19T08:34:25;17.96;69.98
71173;DHT22;58875;51.996;4.504;2023-09-19T08:36:54;17.72;70.54
71173;DHT22;58875;51.996;4.504;2023-09-19T08:39:24;17.34;71.27
71173;DHT22;58875;51.996;4.504;2023-09-19T08:41:58;17.27;71.51
71173;DHT22;58875;51.996;4.504;2023-09-19T08:44:24;17.18;72.01
71173;DHT22;58875;51.996;4.504;2023-09-19T08:46:55;17.24;72.51
71173;DHT22;58875;51.996;4.504;2023-09-19T08:49:32;17.25;71.88
71173;DHT22;58875;51.996;4.504;2023-09-19T08:52:13;17.31;72.38
71173;DHT22;58875;51.996;4.504;2023-09-19T08:54:42;17.35;72.38
71173;DHT22;58875;51.996;4.504;2023-09-19T08:57:10;17.35;72.10
71173;DHT22;58875;51.996;4.504;2023-09-19T08:59:41;17.36;71.92
71173;DHT22;58875;51.996;4.504;2023-09-19T09:02:15;17.59;72.13
71173;DHT22;58875;51.996;4.504;2023-09-19T09:04:41;17.96;71.58
71173;DHT22;58875;51.996;4.504;2023-09-19T09:07:11;18.10;71.51
71173;DHT22;58875;51.996;4.504;2023-09-19T09:09:38;18.07;70.92
71173;DHT22;58875;51.996;4.504;2023-09-19T09:12:12;17.78;71.06
71173;DHT22;58875;51.996;4.504;2023-09-19T09:14:47;18.00;71.52
71173;DHT22;58875;51.996;4.504;2023-09-19T09:17:16;18.22;71.36
71173;DHT22;58875;51.996;4.504;2023-09-19T09:19:46;18.27;70.02
71173;DHT22;58875;51.996;4.504;2023-09-19T09:22:13;18.31;70.06
71173;DHT22;58875;51.996;4.504;2023-09-19T09:24:54;18.26;70.62
71173;DHT22;58875;51.996;4.504;2023-09-19T09:27:23;18.18;70.39
71173;DHT22;58875;51.996;4.504;2023-09-19T09:29:51;18.17;70.54
71173;DHT22;58875;51.996;4.504;2023-09-19T09:32:22;18.16;70.74
71173;DHT22;58875;51.996;4.504;2023-09-19T09:34:52;18.34;70.05
71173;DHT22;58875;51.996;4.504;2023-09-19T09:37:19;18.47;69.48
71173;DHT22;58875;51.996;4.504;2023-09-19T09:39:49;18.43;70.22
71173;DHT22;58875;51.996;4.504;2023-09-19T09:42:36;18.53;69.52
71173;DHT22;58875;51.996;4.504;2023-09-19T09:45:20;18.54;69.84
71173;DHT22;58875;51.996;4.504;2023-09-19T09:47:54;18.47;69.97
71173;DHT22;58875;51.996;4.504;2023-09-19T09:50:36;18.55;69.79
71173;DHT22;58875;51.996;4.504;2023-09-19T09:53:19;18.57;69.31
71173;DHT22;58875;51.996;4.504;2023-09-19T09:56:17;18.72;69.72
71173;DHT22;58875;51.996;4.504;2023-09-19T09:58:51;18.72;69.61
71173;DHT22;58875;51.996;4.504;2023-09-19T10:01:21;18.57;69.83
71173;DHT22;58875;51.996;4.504;2023-09-19T10:03:57;18.45;70.34
71173;DHT22;58875;51.996;4.504;2023-09-19T10:06:23;18.57;69.93
71173;DHT22;58875;51.996;4.504;2023-09-19T10:09:08;18.51;68.60
71173;DHT22;58875;51.996;4.504;2023-09-19T10:11:47;18.62;69.38
71173;DHT22;58875;51.996;4.504;2023-09-19T10:14:25;18.88;69.42
71173;DHT22;58875;51.996;4.504;2023-09-19T10:16:56;18.96;68.87
71173;DHT22;58875;51.996;4.504;2023-09-19T10:19:33;18.99;68.65
71173;DHT22;58875;51.996;4.504;2023-09-19T10:22:02;19.11;67.98
71173;DHT22;58875;51.996;4.504;2023-09-19T10:24:30;19.20;68.20
71173;DHT22;58875;51.996;4.504;2023-09-19T10:26:59;19.27;67.81
71173;DHT22;58875;51.996;4.504;2023-09-19T10:29:28;19.45;68.41
71173;DHT22;58875;51.996;4.504;2023-09-19T10:31:58;19.64;67.67
71173;DHT22;58875;51.996;4.504;2023-09-19T10:34:25;19.64;67.08
71173;DHT22;58875;51.996;4.504;2023-09-19T10:36:52;19.80;67.09
71173;DHT22;58875;51.996;4.504;2023-09-19T10:39:19;19.66;66.94
71173;DHT22;58875;51.996;4.504;2023-09-19T10:41:53;19.52;66.41
71173;DHT22;58875;51.996;4.504;2023-09-19T10:44:25;19.26;67.44
71173;DHT22;58875;51.996;4.504;2023-09-19T10:46:52;19.43;68.09
71173;DHT22;58875;51.996;4.504;2023-09-19T10:49:20;19.73;66.66
71173;DHT22;58875;51.996;4.504;2023-09-19T10:51:49;19.64;67.22
71173;DHT22;58875;51.996;4.504;2023-09-19T10:54:21;19.74;66.25
71173;DHT22;58875;51.996;4.504;2023-09-19T10:56:52;19.74;66.12
71173;DHT22;58875;51.996;4.504;2023-09-19T10:59:21;19.85;65.93
71173;DHT22;58875;51.996;4.504;2023-09-19T11:01:49;20.00;66.21
71173;DHT22;58875;51.996;4.504;2023-09-19T11:04:34;19.78;65.85
71173;DHT22;58875;51.996;4.504;2023-09-19T11:07:06;19.47;66.70
71173;DHT22;58875;51.996;4.504;2023-09-19T11:09:46;19.47;67.41
71173;DHT22;58875;51.996;4.504;2023-09-19T11:15:02;19.59;66.36
71173;DHT22;58875;51.996;4.504;2023-09-19T11:17:36;19.40;67.23
71173;DHT22;58875;51.996;4.504;2023-09-19T11:30:39;19.23;67.93
71173;DHT22;58875;51.996;4.504;2023-09-19T11:33:32;19.26;67.62
71173;DHT22;58875;51.996;4.504;2023-09-19T11:36:13;19.30;67.84
71173;DHT22;58875;51.996;4.504;2023-09-19T11:44:31;19.11;68.30
71173;DHT22;58875;51.996;4.504;2023-09-19T11:46:52;18.92;68.85
71173;DHT22;58875;51.996;4.504;2023-09-19T11:49:30;19.02;69.34
71173;DHT22;58875;51.996;4.504;2023-09-19T11:51:57;19.11;68.92
71173;DHT22;58875;51.996;4.504;2023-09-19T11:54:27;19.08;69.02
71173;DHT22;58875;51.996;4.504;2023-09-19T11:56:57;19.08;69.00
71173;DHT22;58875;51.996;4.504;2023-09-19T11:59:25;19.22;68.74
71173;DHT22;58875;51.996;4.504;2023-09-19T12:01:55;19.30;68.76
71173;DHT22;58875;51.996;4.504;2023-09-19T12:04:35;19.47;68.66
71173;DHT22;58875;51.996;4.504;2023-09-19T12:07:15;19.57;68.29
71173;DHT22;58875;51.996;4.504;2023-09-19T12:10:04;19.67;68.39
71173;DHT22;58875;51.996;4.504;2023-09-19T12:12:31;19.81;67.94
71173;DHT22;58875;51.996;4.504;2023-09-19T12:14:58;19.69;67.93
71173;DHT22;58875;51.996;4.504;2023-09-19T12:17:34;19.63;68.63
71173;DHT22;58875;51.996;4.504;2023-09-19T12:20:01;19.69;68.32
71173;DHT22;58875;51.996;4.504;2023-09-19T12:22:42;19.75;67.30
71173;DHT22;58875;51.996;4.504;2023-09-19T12:25:12;19.53;68.08
71173;DHT22;58875;51.996;4.504;2023-09-19T12:27:47;19.43;67.95
71173;DHT22;58875;51.996;4.504;2023-09-19T12:30:16;19.52;68.00
71173;DHT22;58875;51.996;4.504;2023-09-19T12:32:45;19.60;68.29
71173;DHT22;58875;51.996;4.504;2023-09-19T12:35:27;19.50;68.21
71173;DHT22;58875;51.996;4.504;2023-09-19T12:37:54;19.42;67.80
71173;DHT22;58875;51.996;4.504;2023-09-19T12:40:22;19.52;67.69
71173;DHT22;58875;51.996;4.504;2023-09-19T12:42:56;19.59;67.71
71173;DHT22;58875;51.996;4.504;2023-09-19T12:45:22;19.67;67.60
71173;DHT22;58875;51.996;4.504;2023-09-19T12:48:22;19.69;67.96
71173;DHT22;58875;51.996;4.504;2023-09-19T12:51:18;19.77;68.23
71173;DHT22;58875;51.996;4.504;2023-09-19T12:53:57;19.69;68.25
71173;DHT22;58875;51.996;4.504;2023-09-19T12:56:23;19.60;67.66
71173;DHT22;58875;51.996;4.504;2023-09-19T12:58:57;19.57;68.05
71173;DHT22;58875;51.996;4.504;2023-09-19T13:01:27;19.64;68.31
71173;DHT22;58875;51.996;4.504;2023-09-19T13:04:21;19.66;69.01
71173;DHT22;58875;51.996;4.504;2023-09-19T13:06:53;19.70;68.80
71173;DHT22;58875;51.996;4.504;2023-09-19T13:09:21;19.66;68.64
71173;DHT22;58875;51.996;4.504;2023-09-19T13:11:47;19.46;68.67
71173;DHT22;58875;51.996;4.504;2023-09-19T13:14:23;19.42;69.12
71173;DHT22;58875;51.996;4.504;2023-09-19T13:17:07;19.30;69.19
71173;DHT22;58875;51.996;4.504;2023-09-19T13:19:46;19.29;69.41
71173;DHT22;58875;51.996;4.504;2023-09-19T13:22:40;19.52;68.95
71173;DHT22;58875;51.996;4.504;2023-09-19T13:25:15;19.53;68.79
71173;DHT22;58875;51.996;4.504;2023-09-19T13:27:54;19.49;69.06
71173;DHT22;58875;51.996;4.504;2023-09-19T13:30:27;19.47;68.91
71173;DHT22;58875;51.996;4.504;2023-09-19T13:33:10;19.46;68.30
71173;DHT22;58875;51.996;4.504;2023-09-19T13:35:38;19.52;68.24
71173;DHT22;58875;51.996;4.504;2023-09-19T13:38:05;19.43;68.35
71173;DHT22;58875;51.996;4.504;2023-09-19T13:40:35;19.32;69.53
71173;DHT22;58875;51.996;4.504;2023-09-19T13:43:03;19.27;71.77
71173;DHT22;58875;51.996;4.504;2023-09-19T13:45:29;19.08;72.01
71173;DHT22;58875;51.996;4.504;2023-09-19T13:47:56;19.08;72.32
71173;DHT22;58875;51.996;4.504;2023-09-19T13:50:21;19.06;71.72
71173;DHT22;58875;51.996;4.504;2023-09-19T13:52:52;19.11;70.34
71173;DHT22;58875;51.996;4.504;2023-09-19T13:55:19;19.16;69.48
71173;DHT22;58875;51.996;4.504;2023-09-19T13:57:49;19.13;68.91
71173;DHT22;58875;51.996;4.504;2023-09-19T14:00:23;19.16;69.13
71173;DHT22;58875;51.996;4.504;2023-09-19T14:02:49;19.19;69.60
71173;DHT22;58875;51.996;4.504;2023-09-19T14:05:16;19.15;69.92
71173;DHT22;58875;51.996;4.504;2023-09-19T14:07:45;18.85;73.02
71173;DHT22;58875;51.996;4.504;2023-09-19T14:10:11;18.43;76.31
71173;DHT22;58875;51.996;4.504;2023-09-19T14:12:40;18.24;77.59
71173;DHT22;58875;51.996;4.504;2023-09-19T14:15:10;18.02;78.78
71173;DHT22;58875;51.996;4.504;2023-09-19T14:17:37;17.85;79.42
71173;DHT22;58875;51.996;4.504;2023-09-19T14:20:03;17.75;79.74
71173;DHT22;58875;51.996;4.504;2023-09-19T14:22:31;17.78;79.94
71173;DHT22;58875;51.996;4.504;2023-09-19T14:24:56;17.87;79.77
71173;DHT22;58875;51.996;4.504;2023-09-19T14:27:22;17.93;78.23
71173;DHT22;58875;51.996;4.504;2023-09-19T14:29:47;18.07;78.25
71173;DHT22;58875;51.996;4.504;2023-09-19T14:32:13;18.20;77.09
71173;DHT22;58875;51.996;4.504;2023-09-19T14:34:39;18.30;76.40
71173;DHT22;58875;51.996;4.504;2023-09-19T14:37:08;18.36;75.04
71173;DHT22;58875;51.996;4.504;2023-09-19T14:39:33;18.48;74.61
71173;DHT22;58875;51.996;4.504;2023-09-19T14:41:59;18.62;73.51
71173;DHT22;58875;51.996;4.504;2023-09-19T14:44:25;18.69;72.45
71173;DHT22;58875;51.996;4.504;2023-09-19T14:46:50;18.81;72.34
71173;DHT22;58875;51.996;4.504;2023-09-19T14:49:16;18.81;71.82
71173;DHT22;58875;51.996;4.504;2023-09-19T14:51:42;18.87;71.71
71173;DHT22;58875;51.996;4.504;2023-09-19T14:54:09;18.96;71.44
71173;DHT22;58875;51.996;4.504;2023-09-19T14:56:35;18.99;71.29
71173;DHT22;58875;51.996;4.504;2023-09-19T14:59:01;18.99;71.45
71173;DHT22;58875;51.996;4.504;2023-09-19T15:01:26;18.94;71.53
71173;DHT22;58875;51.996;4.504;2023-09-19T15:03:52;18.95;71.56
71173;DHT22;58875;51.996;4.504;2023-09-19T15:06:19;18.92;71.23
71173;DHT22;58875;51.996;4.504;2023-09-19T15:08:47;18.89;71.00
71173;DHT22;58875;51.996;4.504;2023-09-19T15:11:14;18.94;71.64
71173;DHT22;58875;51.996;4.504;2023-09-19T15:13:43;18.95;71.23
71173;DHT22;58875;51.996;4.504;2023-09-19T15:16:09;18.96;71.35
71173;DHT22;58875;51.996;4.504;2023-09-19T15:18:45;18.98;71.29
71173;DHT22;58875;51.996;4.504;2023-09-19T15:21:14;18.98;70.81
71173;DHT22;58875;51.996;4.504;2023-09-19T15:23:41;19.08;70.95
71173;DHT22;58875;51.996;4.504;2023-09-19T15:26:09;19.12;70.63
71173;DHT22;58875;51.996;4.504;2023-09-19T15:28:35;19.13;70.45
71173;DHT22;58875;51.996;4.504;2023-09-19T15:31:06;19.12;70.55
71173;DHT22;58875;51.996;4.504;2023-09-19T15:33:33;18.99;71.12
71173;DHT22;58875;51.996;4.504;2023-09-19T15:36:11;18.74;72.99
71173;DHT22;58875;51.996;4.504;2023-09-19T15:39:02;18.53;74.22
71173;DHT22;58875;51.996;4.504;2023-09-19T15:41:33;18.43;74.84
71173;DHT22;58875;51.996;4.504;2023-09-19T15:44:01;18.38;76.06
71173;DHT22;58875;51.996;4.504;2023-09-19T15:46:32;18.30;76.33
71173;DHT22;58875;51.996;4.504;2023-09-19T15:49:00;18.26;76.74
71173;DHT22;58875;51.996;4.504;2023-09-19T15:51:27;18.24;76.70
71173;DHT22;58875;51.996;4.504;2023-09-19T15:53:54;18.26;76.76
71173;DHT22;58875;51.996;4.504;2023-09-19T15:56:22;18.18;76.62
71173;DHT22;58875;51.996;4.504;2023-09-19T15:58:49;18.18;76.11
71173;DHT22;58875;51.996;4.504;2023-09-19T16:01:15;18.26;75.78
71173;DHT22;58875;51.996;4.504;2023-09-19T16:03:50;18.34;75.87
71173;DHT22;58875;51.996;4.504;2023-09-19T16:06:20;18.38;75.45
71173;DHT22;58875;51.996;4.504;2023-09-19T16:08:49;18.44;75.27
71173;DHT22;58875;51.996;4.504;2023-09-19T16:11:17;18.43;74.93
71173;DHT22;58875;51.996;4.504;2023-09-19T16:13:43;18.44;74.56
71173;DHT22;58875;51.996;4.504;2023-09-19T16:16:14;18.57;74.54
71173;DHT22;58875;51.996;4.504;2023-09-19T16:19:01;18.57;74.76
71173;DHT22;58875;51.996;4.504;2023-09-19T16:21:30;18.60;74.69
71173;DHT22;58875;51.996;4.504;2023-09-19T16:23:58;18.54;74.99
71173;DHT22;58875;51.996;4.504;2023-09-19T16:26:25;18.48;75.25